sensor_id;sensor_type;location;lat;lon;timestamp;pressure;altitude;pressure_sealevel;temperature;humidity
80321;BME280;69633;47.066;15.450;2023-07-13T00:01:52;97372.28;;;23.57;54.56
80321;BME280;69633;47.066;15.450;2023-07-13T00:04:18;97366.94;;;23.53;54.58
80321;BME280;69633;47.066;15.450;2023-07-13T00:06:46;97358.69;;;23.37;54.66
80321;BME280;69633;47.066;15.450;2023-07-13T00:09:18;97359.03;;;23.20;55.17
80321;BME280;69633;47.066;15.450;2023-07-13T00:11:49;97351.72;;;22.97;56.13
80321;BME280;69633;47.066;15.450;2023-07-13T00:14:15;97361.28;;;22.82;56.57
80321;BME280;69633;47.066;15.450;2023-07-13T00:16:41;97350.56;;;22.75;57.16
80321;BME280;69633;47.066;15.450;2023-07-13T00:19:12;97340.56;;;22.72;57.25
80321;BME280;69633;47.066;15.450;2023-07-13T00:21:40;97324.75;;;22.70;57.31
80321;BME280;69633;47.066;15.450;2023-07-13T00:24:17;97319.63;;;22.76;57.17
80321;BME280;69633;47.066;15.450;2023-07-13T00:26:50;97312.31;;;22.73;57.40
80321;BME280;69633;47.066;15.450;2023-07-13T00:29:17;97319.00;;;22.68;57.59
80321;BME280;69633;47.066;15.450;2023-07-13T00:31:43;97334.78;;;22.70;57.54
80321;BME280;69633;47.066;15.450;2023-07-13T00:34:10;97319.72;;;22.69;57.57
80321;BME280;69633;47.066;15.450;2023-07-13T00:36:38;97309.38;;;22.63;57.66
80321;BME280;69633;47.066;15.450;2023-07-13T00:39:05;97289.84;;;22.52;58.00
80321;BME280;69633;47.066;15.450;2023-07-13T00:41:32;97278.31;;;22.48;58.11
80321;BME280;69633;47.066;15.450;2023-07-13T00:43:57;97270.72;;;22.40;58.40
80321;BME280;69633;47.066;15.450;2023-07-13T00:46:41;97293.91;;;22.41;58.64
80321;BME280;69633;47.066;15.450;2023-07-13T00:49:21;97301.78;;;22.32;58.80
80321;BME280;69633;47.066;15.450;2023-07-13T00:54:40;97281.63;;;22.36;58.38
80321;BME280;69633;47.066;15.450;2023-07-13T00:57:11;97246.56;;;22.29;58.71
80321;BME280;69633;47.066;15.450;2023-07-13T00:59:40;97243.75;;;22.36;58.88
80321;BME280;69633;47.066;15.450;2023-07-13T01:02:08;97259.03;;;22.46;58.28
80321;BME280;69633;47.066;15.450;2023-07-13T01:04:33;97259.16;;;22.39;58.39
80321;BME280;69633;47.066;15.450;2023-07-13T01:06:59;97261.97;;;22.32;58.59
80321;BME280;69633;47.066;15.450;2023-07-13T01:09:26;97267.75;;;22.34;58.69
80321;BME280;69633;47.066;15.450;2023-07-13T01:11:53;97247.28;;;22.33;58.87
80321;BME280;69633;47.066;15.450;2023-07-13T01:14:29;97235.44;;;22.24;59.07
80321;BME280;69633;47.066;15.450;2023-07-13T01:17:09;97281.34;;;22.31;58.92
80321;BME280;69633;47.066;15.450;2023-07-13T01:19:54;97345.25;;;22.44;59.06
80321;BME280;69633;47.066;15.450;2023-07-13T01:22:21;97354.06;;;22.48;59.44
80321;BME280;69633;47.066;15.450;2023-07-13T01:24:52;97337.81;;;22.25;60.80
80321;BME280;69633;47.066;15.450;2023-07-13T01:27:22;97332.56;;;22.14;61.15
80321;BME280;69633;47.066;15.450;2023-07-13T01:29:54;97344.72;;;22.03;62.83
80321;BME280;69633;47.066;15.450;2023-07-13T01:32:29;97347.09;;;21.97;63.45
80321;BME280;69633;47.066;15.450;2023-07-13T01:34:58;97365.47;;;21.79;65.13
80321;BME280;69633;47.066;15.450;2023-07-13T01:37:26;97382.25;;;21.63;66.98
80321;BME280;69633;47.066;15.450;2023-07-13T01:39:53;97399.06;;;21.48;65.90
80321;BME280;69633;47.066;15.450;2023-07-13T01:42:20;97400.78;;;21.31;67.47
80321;BME280;69633;47.066;15.450;2023-07-13T01:44:46;97405.97;;;21.08;68.65
80321;BME280;69633;47.066;15.450;2023-07-13T01:47:13;97436.72;;;20.77;70.78
80321;BME280;69633;47.066;15.450;2023-07-13T01:49:40;97466.69;;;20.31;72.98
80321;BME280;69633;47.066;15.450;2023-07-13T01:52:07;97504.53;;;19.95;75.65
80321;BME280;69633;47.066;15.450;2023-07-13T01:54:33;97546.94;;;19.73;76.94
80321;BME280;69633;47.066;15.450;2023-07-13T01:56:59;97601.97;;;19.51;78.59
80321;BME280;69633;47.066;15.450;2023-07-13T01:59:25;97660.44;;;19.54;78.29
80321;BME280;69633;47.066;15.450;2023-07-13T02:01:50;97691.63;;;19.62;76.44
80321;BME280;69633;47.066;15.450;2023-07-13T02:04:17;97719.34;;;19.66;78.65
80321;BME280;69633;47.066;15.450;2023-07-13T02:06:42;97739.38;;;19.83;77.66
80321;BME280;69633;47.066;15.450;2023-07-13T02:09:09;97758.97;;;19.87;77.25
80321;BME280;69633;47.066;15.450;2023-07-13T02:11:36;97771.72;;;19.97;77.48
80321;BME280;69633;47.066;15.450;2023-07-13T02:14:03;97787.09;;;20.14;76.31
80321;BME280;69633;47.066;15.450;2023-07-13T02:16:30;97791.72;;;20.24;75.58
80321;BME280;69633;47.066;15.450;2023-07-13T02:18:56;97791.38;;;20.33;75.88
80321;BME280;69633;47.066;15.450;2023-07-13T02:21:23;97769.03;;;20.36;75.88
80321;BME280;69633;47.066;15.450;2023-07-13T02:23:50;97761.31;;;20.45;77.14
80321;BME280;69633;47.066;15.450;2023-07-13T02:26:17;97736.25;;;20.59;76.47
80321;BME280;69633;47.066;15.450;2023-07-13T02:28:45;97709.72;;;20.43;77.95
80321;BME280;69633;47.066;15.450;2023-07-13T02:31:14;97668.50;;;20.18;78.85
80321;BME280;69633;47.066;15.450;2023-07-13T02:33:41;97643.88;;;20.09;78.86
80321;BME280;69633;47.066;15.450;2023-07-13T02:36:09;97618.03;;;20.22;79.04
80321;BME280;69633;47.066;15.450;2023-07-13T02:38:35;97558.75;;;20.22;78.92
80321;BME280;69633;47.066;15.450;2023-07-13T02:41:07;97519.53;;;20.03;80.55
80321;BME280;69633;47.066;15.450;2023-07-13T02:43:38;97443.75;;;19.98;80.15
80321;BME280;69633;47.066;15.450;2023-07-13T02:46:05;97431.53;;;19.75;80.54
80321;BME280;69633;47.066;15.450;2023-07-13T02:48:35;97456.13;;;19.74;80.23
80321;BME280;69633;47.066;15.450;2023-07-13T02:51:02;97469.56;;;19.85;80.24
80321;BME280;69633;47.066;15.450;2023-07-13T02:53:27;97451.13;;;19.83;79.80
80321;BME280;69633;47.066;15.450;2023-07-13T02:55:54;97458.44;;;19.83;79.78
80321;BME280;69633;47.066;15.450;2023-07-13T02:58:21;97475.34;;;19.90;79.19
80321;BME280;69633;47.066;15.450;2023-07-13T03:00:48;97514.94;;;19.97;79.52
80321;BME280;69633;47.066;15.450;2023-07-13T03:03:16;97543.44;;;19.98;79.35
80321;BME280;69633;47.066;15.450;2023-07-13T03:05:45;97556.50;;;19.96;78.43
80321;BME280;69633;47.066;15.450;2023-07-13T03:08:16;97590.41;;;19.97;78.86
80321;BME280;69633;47.066;15.450;2023-07-13T03:10:45;97621.53;;;20.15;76.87
80321;BME280;69633;47.066;15.450;2023-07-13T03:13:12;97645.78;;;20.22;77.22
80321;BME280;69633;47.066;15.450;2023-07-13T03:15:38;97654.63;;;20.26;77.57
80321;BME280;69633;47.066;15.450;2023-07-13T03:18:05;97650.38;;;20.36;76.91
80321;BME280;69633;47.066;15.450;2023-07-13T03:20:36;97651.56;;;20.35;77.36
80321;BME280;69633;47.066;15.450;2023-07-13T03:23:03;97640.34;;;20.40;77.13
80321;BME280;69633;47.066;15.450;2023-07-13T03:25:28;97643.81;;;20.41;77.22
80321;BME280;69633;47.066;15.450;2023-07-13T03:27:55;97613.06;;;20.31;77.79
80321;BME280;69633;47.066;15.450;2023-07-13T03:30:21;97570.69;;;20.35;79.07
80321;BME280;69633;47.066;15.450;2023-07-13T03:32:47;97537.56;;;20.31;77.91
80321;BME280;69633;47.066;15.450;2023-07-13T03:35:13;97466.69;;;20.34;78.42
80321;BME280;69633;47.066;15.450;2023-07-13T03:37:40;97400.44;;;20.33;78.80
80321;BME280;69633;47.066;15.450;2023-07-13T03:40:12;97324.28;;;20.15;79.44
80321;BME280;69633;47.066;15.450;2023-07-13T03:42:40;97263.97;;;19.95;80.29
80321;BME280;69633;47.066;15.450;2023-07-13T03:45:09;97230.56;;;19.85;81.24
80321;BME280;69633;47.066;15.450;2023-07-13T03:47:35;97227.50;;;19.87;80.52
80321;BME280;69633;47.066;15.450;2023-07-13T03:50:01;97228.66;;;19.86;80.22
80321;BME280;69633;47.066;15.450;2023-07-13T03:52:28;97249.31;;;19.99;80.37
80321;BME280;69633;47.066;15.450;2023-07-13T03:54:54;97281.25;;;20.04;79.15
80321;BME280;69633;47.066;15.450;2023-07-13T03:57:20;97330.50;;;20.08;79.35
80321;BME280;69633;47.066;15.450;2023-07-13T03:59:46;97336.66;;;20.09;79.38
80321;BME280;69633;47.066;15.450;2023-07-13T04:02:13;97345.81;;;20.18;79.22
80321;BME280;69633;47.066;15.450;2023-07-13T04:04:38;97382.72;;;20.25;79.01
80321;BME280;69633;47.066;15.450;2023-07-13T04:07:07;97395.84;;;20.23;79.43
80321;BME280;69633;47.066;15.450;2023-07-13T04:09:36;97424.34;;;20.24;78.97
80321;BME280;69633;47.066;15.450;2023-07-13T04:12:03;97434.72;;;20.29;79.14
80321;BME280;69633;47.066;15.450;2023-07-13T04:14:28;97442.81;;;20.29;79.03
80321;BME280;69633;47.066;15.450;2023-07-13T04:16:54;97468.19;;;20.39;78.47
80321;BME280;69633;47.066;15.450;2023-07-13T04:19:20;97465.88;;;20.37;78.91
80321;BME280;69633;47.066;15.450;2023-07-13T04:21:47;97472.78;;;20.42;78.56
80321;BME280;69633;47.066;15.450;2023-07-13T04:24:14;97467.38;;;20.45;77.83
80321;BME280;69633;47.066;15.450;2023-07-13T04:26:39;97463.09;;;20.51;77.40
80321;BME280;69633;47.066;15.450;2023-07-13T04:29:06;97469.22;;;20.55;76.18
80321;BME280;69633;47.066;15.450;2023-07-13T04:31:33;97486.59;;;20.54;77.12
80321;BME280;69633;47.066;15.450;2023-07-13T04:34:00;97483.47;;;20.59;76.43
80321;BME280;69633;47.066;15.450;2023-07-13T04:36:27;97484.97;;;20.67;76.15
80321;BME280;69633;47.066;15.450;2023-07-13T04:38:53;97493.03;;;20.71;75.74
80321;BME280;69633;47.066;15.450;2023-07-13T04:41:20;97500.31;;;20.78;75.31
80321;BME280;69633;47.066;15.450;2023-07-13T04:43:47;97507.25;;;20.75;74.70
80321;BME280;69633;47.066;15.450;2023-07-13T04:46:17;97499.94;;;20.76;75.65
80321;BME280;69633;47.066;15.450;2023-07-13T04:48:46;97502.63;;;20.76;75.25
80321;BME280;69633;47.066;15.450;2023-07-13T04:51:12;97502.69;;;20.68;74.90
80321;BME280;69633;47.066;15.450;2023-07-13T04:53:39;97499.19;;;20.71;74.03
80321;BME280;69633;47.066;15.450;2023-07-13T04:56:04;97499.09;;;20.86;73.69
80321;BME280;69633;47.066;15.450;2023-07-13T04:58:31;97497.16;;;20.86;72.87
80321;BME280;69633;47.066;15.450;2023-07-13T05:01:03;97495.56;;;20.92;73.56
80321;BME280;69633;47.066;15.450;2023-07-13T05:03:34;97489.34;;;21.02;70.93
80321;BME280;69633;47.066;15.450;2023-07-13T05:06:04;97490.09;;;21.03;70.76
80321;BME280;69633;47.066;15.450;2023-07-13T05:08:32;97486.97;;;21.08;71.71
80321;BME280;69633;47.066;15.450;2023-07-13T05:11:03;97483.06;;;21.16;71.57
80321;BME280;69633;47.066;15.450;2023-07-13T05:13:30;97486.13;;;21.22;71.91
80321;BME280;69633;47.066;15.450;2023-07-13T05:16:01;97494.59;;;21.20;71.70
80321;BME280;69633;47.066;15.450;2023-07-13T05:18:27;97499.22;;;21.23;72.34
80321;BME280;69633;47.066;15.450;2023-07-13T05:21:12;97489.09;;;21.31;72.15
80321;BME280;69633;47.066;15.450;2023-07-13T05:23:38;97489.94;;;21.24;73.27
80321;BME280;69633;47.066;15.450;2023-07-13T05:26:04;97495.41;;;21.17;73.40
80321;BME280;69633;47.066;15.450;2023-07-13T05:28:32;97488.16;;;21.07;73.94
80321;BME280;69633;47.066;15.450;2023-07-13T05:30:58;97489.38;;;20.99;73.21
80321;BME280;69633;47.066;15.450;2023-07-13T05:33:24;97494.09;;;20.84;73.63
80321;BME280;69633;47.066;15.450;2023-07-13T05:35:51;97475.50;;;20.93;74.24
80321;BME280;69633;47.066;15.450;2023-07-13T05:38:19;97475.34;;;21.18;73.51
80321;BME280;69633;47.066;15.450;2023-07-13T05:40:45;97464.13;;;21.19;71.42
80321;BME280;69633;47.066;15.450;2023-07-13T05:43:13;97472.91;;;21.31;72.82
80321;BME280;69633;47.066;15.450;2023-07-13T05:45:40;97469.09;;;21.28;71.94
80321;BME280;69633;47.066;15.450;2023-07-13T05:48:07;97472.03;;;21.44;71.69
80321;BME280;69633;47.066;15.450;2023-07-13T05:50:32;97488.31;;;21.34;72.07
80321;BME280;69633;47.066;15.450;2023-07-13T05:52:58;97489.38;;;21.43;71.40
80321;BME280;69633;47.066;15.450;2023-07-13T05:55:24;97482.63;;;21.62;70.94
80321;BME280;69633;47.066;15.450;2023-07-13T05:57:50;97486.47;;;21.64;70.93
80321;BME280;69633;47.066;15.450;2023-07-13T06:00:18;97502.56;;;21.75;70.49
80321;BME280;69633;47.066;15.450;2023-07-13T06:02:46;97493.16;;;21.87;68.83
80321;BME280;69633;47.066;15.450;2023-07-13T06:05:13;97495.66;;;22.08;67.41
80321;BME280;69633;47.066;15.450;2023-07-13T06:07:43;97500.41;;;22.31;66.69
80321;BME280;69633;47.066;15.450;2023-07-13T06:10:10;97487.28;;;22.29;66.38
80321;BME280;69633;47.066;15.450;2023-07-13T06:12:38;97490.78;;;22.56;65.08
80321;BME280;69633;47.066;15.450;2023-07-13T06:15:06;97480.78;;;22.80;64.60
80321;BME280;69633;47.066;15.450;2023-07-13T06:17:33;97502.06;;;23.05;63.47
80321;BME280;69633;47.066;15.450;2023-07-13T06:20:00;97492.16;;;23.18;62.62
80321;BME280;69633;47.066;15.450;2023-07-13T06:22:29;97512.78;;;23.12;62.16
80321;BME280;69633;47.066;15.450;2023-07-13T06:24:56;97508.28;;;23.25;62.00
80321;BME280;69633;47.066;15.450;2023-07-13T06:27:22;97518.91;;;23.39;61.49
80321;BME280;69633;47.066;15.450;2023-07-13T06:29:49;97515.72;;;23.44;61.85
80321;BME280;69633;47.066;15.450;2023-07-13T06:32:15;97502.75;;;23.32;62.46
80321;BME280;69633;47.066;15.450;2023-07-13T06:34:40;97506.06;;;23.20;61.71
80321;BME280;69633;47.066;15.450;2023-07-13T06:37:08;97505.97;;;23.50;61.36
80321;BME280;69633;47.066;15.450;2023-07-13T06:39:33;97502.06;;;23.28;61.17
80321;BME280;69633;47.066;15.450;2023-07-13T06:42:05;97496.75;;;23.21;62.62
80321;BME280;69633;47.066;15.450;2023-07-13T06:44:30;97501.22;;;23.08;62.47
80321;BME280;69633;47.066;15.450;2023-07-13T06:46:57;97497.22;;;23.16;63.12
80321;BME280;69633;47.066;15.450;2023-07-13T06:49:24;97499.88;;;23.20;62.39
80321;BME280;69633;47.066;15.450;2023-07-13T06:51:50;97502.22;;;23.18;63.24
80321;BME280;69633;47.066;15.450;2023-07-13T06:54:16;97516.72;;;23.31;62.78
80321;BME280;69633;47.066;15.450;2023-07-13T06:56:42;97523.41;;;23.49;62.57
80321;BME280;69633;47.066;15.450;2023-07-13T06:59:09;97519.47;;;23.54;62.49
80321;BME280;69633;47.066;15.450;2023-07-13T07:01:36;97519.78;;;23.56;62.28
80321;BME280;69633;47.066;15.450;2023-07-13T07:04:03;97520.81;;;23.66;62.71
80321;BME280;69633;47.066;15.450;2023-07-13T07:06:29;97514.69;;;24.01;60.65
80321;BME280;69633;47.066;15.450;2023-07-13T07:08:56;97511.97;;;24.01;60.92
80321;BME280;69633;47.066;15.450;2023-07-13T07:11:25;97516.66;;;24.20;59.94
80321;BME280;69633;47.066;15.450;2023-07-13T07:13:52;97515.72;;;24.07;58.14
80321;BME280;69633;47.066;15.450;2023-07-13T07:16:21;97519.13;;;24.50;58.58
80321;BME280;69633;47.066;15.450;2023-07-13T07:18:48;97519.31;;;24.60;58.31
80321;BME280;69633;47.066;15.450;2023-07-13T07:21:14;97531.53;;;24.51;56.97
80321;BME280;69633;47.066;15.450;2023-07-13T07:23:41;97519.66;;;24.62;56.39
80321;BME280;69633;47.066;15.450;2023-07-13T07:26:09;97511.84;;;24.64;56.52
80321;BME280;69633;47.066;15.450;2023-07-13T07:28:36;97517.31;;;24.80;56.02
80321;BME280;69633;47.066;15.450;2023-07-13T07:31:03;97514.50;;;24.83;55.04
80321;BME280;69633;47.066;15.450;2023-07-13T07:33:32;97518.09;;;24.80;55.53
80321;BME280;69633;47.066;15.450;2023-07-13T07:35:59;97509.09;;;25.32;54.44
80321;BME280;69633;47.066;15.450;2023-07-13T07:38:27;97496.34;;;25.90;53.81
80321;BME280;69633;47.066;15.450;2023-07-13T07:40:56;97485.03;;;25.46;54.60
80321;BME280;69633;47.066;15.450;2023-07-13T07:43:23;97495.34;;;25.39;54.27
80321;BME280;69633;47.066;15.450;2023-07-13T07:45:51;97498.94;;;25.81;53.45
80321;BME280;69633;47.066;15.450;2023-07-13T07:48:18;97485.63;;;26.12;51.72
80321;BME280;69633;47.066;15.450;2023-07-13T07:50:44;97487.00;;;26.20;51.75
80321;BME280;69633;47.066;15.450;2023-07-13T07:53:12;97484.56;;;26.09;51.37
80321;BME280;69633;47.066;15.450;2023-07-13T07:55:39;97485.34;;;26.22;50.27
80321;BME280;69633;47.066;15.450;2023-07-13T07:58:06;97492.50;;;26.16;50.71
80321;BME280;69633;47.066;15.450;2023-07-13T08:00:32;97495.94;;;26.20;51.18
80321;BME280;69633;47.066;15.450;2023-07-13T08:02:58;97505.66;;;26.72;50.27
80321;BME280;69633;47.066;15.450;2023-07-13T08:05:25;97510.88;;;27.04;49.26
80321;BME280;69633;47.066;15.450;2023-07-13T08:07:55;97501.09;;;27.41;47.72
80321;BME280;69633;47.066;15.450;2023-07-13T08:10:20;97501.38;;;27.21;47.75
80321;BME280;69633;47.066;15.450;2023-07-13T08:12:49;97503.41;;;26.96;48.66
80321;BME280;69633;47.066;15.450;2023-07-13T08:15:16;97504.47;;;26.85;47.90
80321;BME280;69633;47.066;15.450;2023-07-13T08:17:43;97507.84;;;26.77;48.04
80321;BME280;69633;47.066;15.450;2023-07-13T08:20:09;97508.38;;;26.84;47.19
80321;BME280;69633;47.066;15.450;2023-07-13T08:22:38;97502.16;;;27.09;46.24
80321;BME280;69633;47.066;15.450;2023-07-13T08:25:05;97493.44;;;27.14;45.06
80321;BME280;69633;47.066;15.450;2023-07-13T08:27:33;97500.97;;;27.45;44.66
80321;BME280;69633;47.066;15.450;2023-07-13T08:29:59;97494.16;;;27.40;44.46
80321;BME280;69633;47.066;15.450;2023-07-13T08:32:26;97485.50;;;27.42;43.55
80321;BME280;69633;47.066;15.450;2023-07-13T08:34:52;97484.44;;;27.52;43.64
80321;BME280;69633;47.066;15.450;2023-07-13T08:37:19;97491.78;;;27.64;44.03
80321;BME280;69633;47.066;15.450;2023-07-13T08:39:46;97492.22;;;27.28;43.81
80321;BME280;69633;47.066;15.450;2023-07-13T08:48:09;97473.47;;;28.39;40.99
80321;BME280;69633;47.066;15.450;2023-07-13T08:53:19;97492.72;;;28.26;41.54
80321;BME280;69633;47.066;15.450;2023-07-13T08:55:48;97477.19;;;28.01;40.91
80321;BME280;69633;47.066;15.450;2023-07-13T08:58:21;97478.84;;;27.99;41.22
80321;BME280;69633;47.066;15.450;2023-07-13T09:04:05;97482.09;;;28.06;41.47
80321;BME280;69633;47.066;15.450;2023-07-13T09:12:51;97460.78;;;28.45;39.83
80321;BME280;69633;47.066;15.450;2023-07-13T09:15:30;97456.56;;;28.93;39.27
80321;BME280;69633;47.066;15.450;2023-07-13T09:21:31;97474.53;;;29.21;38.48
80321;BME280;69633;47.066;15.450;2023-07-13T09:27:12;97484.16;;;28.76;38.84
80321;BME280;69633;47.066;15.450;2023-07-13T09:29:45;97487.19;;;29.27;38.39
80321;BME280;69633;47.066;15.450;2023-07-13T09:32:14;97492.72;;;28.97;37.74
80321;BME280;69633;47.066;15.450;2023-07-13T09:34:50;97488.22;;;28.72;39.45
80321;BME280;69633;47.066;15.450;2023-07-13T09:37:21;97486.19;;;29.03;38.88
80321;BME280;69633;47.066;15.450;2023-07-13T09:39:49;97482.34;;;29.68;37.64
80321;BME280;69633;47.066;15.450;2023-07-13T09:42:20;97479.59;;;29.77;38.23
80321;BME280;69633;47.066;15.450;2023-07-13T09:44:59;97481.41;;;29.44;37.94
80321;BME280;69633;47.066;15.450;2023-07-13T09:47:44;97474.53;;;30.21;36.69
80321;BME280;69633;47.066;15.450;2023-07-13T09:50:14;97479.31;;;30.02;37.20
80321;BME280;69633;47.066;15.450;2023-07-13T09:52:53;97482.03;;;29.57;37.76
80321;BME280;69633;47.066;15.450;2023-07-13T09:55:23;97481.72;;;29.82;37.28
80321;BME280;69633;47.066;15.450;2023-07-13T09:57:54;97485.53;;;29.66;37.79
80321;BME280;69633;47.066;15.450;2023-07-13T10:00:28;97481.13;;;29.60;37.83
80321;BME280;69633;47.066;15.450;2023-07-13T10:05:26;97471.09;;;30.02;37.02
80321;BME280;69633;47.066;15.450;2023-07-13T10:07:55;97478.09;;;29.94;37.33
80321;BME280;69633;47.066;15.450;2023-07-13T10:10:23;97477.47;;;30.08;36.77
80321;BME280;69633;47.066;15.450;2023-07-13T10:12:50;97474.44;;;30.06;36.74
80321;BME280;69633;47.066;15.450;2023-07-13T10:15:20;97481.44;;;29.98;37.00
80321;BME280;69633;47.066;15.450;2023-07-13T10:17:49;97464.88;;;30.53;36.55
80321;BME280;69633;47.066;15.450;2023-07-13T10:20:21;97468.56;;;30.32;36.73
80321;BME280;69633;47.066;15.450;2023-07-13T10:22:50;97463.47;;;30.57;36.03
80321;BME280;69633;47.066;15.450;2023-07-13T10:25:22;97454.88;;;30.74;35.56
80321;BME280;69633;47.066;15.450;2023-07-13T10:27:54;97460.78;;;30.48;36.07
80321;BME280;69633;47.066;15.450;2023-07-13T10:30:41;97456.78;;;29.98;36.16
80321;BME280;69633;47.066;15.450;2023-07-13T10:33:12;97468.22;;;29.88;36.30
80321;BME280;69633;47.066;15.450;2023-07-13T10:35:44;97462.50;;;30.28;36.10
80321;BME280;69633;47.066;15.450;2023-07-13T10:38:18;97461.28;;;30.29;36.25
80321;BME280;69633;47.066;15.450;2023-07-13T10:41:09;97471.69;;;29.79;37.10
80321;BME280;69633;47.066;15.450;2023-07-13T10:43:49;97460.69;;;30.15;36.74
80321;BME280;69633;47.066;15.450;2023-07-13T10:46:33;97464.09;;;31.18;35.51
80321;BME280;69633;47.066;15.450;2023-07-13T10:49:05;97462.56;;;31.41;34.91
80321;BME280;69633;47.066;15.450;2023-07-13T10:51:34;97454.88;;;31.83;34.29
80321;BME280;69633;47.066;15.450;2023-07-13T10:54:40;97459.63;;;31.68;34.25
80321;BME280;69633;47.066;15.450;2023-07-13T11:00:17;97458.34;;;32.07;33.34
80321;BME280;69633;47.066;15.450;2023-07-13T11:02:56;97455.00;;;32.03;34.27
80321;BME280;69633;47.066;15.450;2023-07-13T11:05:31;97460.25;;;32.31;33.81
80321;BME280;69633;47.066;15.450;2023-07-13T11:08:18;97441.44;;;32.44;33.52
80321;BME280;69633;47.066;15.450;2023-07-13T11:10:54;97438.97;;;32.46;33.65
80321;BME280;69633;47.066;15.450;2023-07-13T11:13:55;97433.88;;;32.39;33.49
80321;BME280;69633;47.066;15.450;2023-07-13T11:21:33;97423.56;;;32.04;33.58
80321;BME280;69633;47.066;15.450;2023-07-13T11:24:18;97435.19;;;32.43;33.46
80321;BME280;69633;47.066;15.450;2023-07-13T11:27:14;97433.13;;;32.38;33.09
80321;BME280;69633;47.066;15.450;2023-07-13T11:29:45;97423.31;;;32.52;33.20
80321;BME280;69633;47.066;15.450;2023-07-13T11:32:40;97412.78;;;32.16;33.79
80321;BME280;69633;47.066;15.450;2023-07-13T11:35:13;97415.22;;;32.14;34.83
80321;BME280;69633;47.066;15.450;2023-07-13T11:37:44;97420.13;;;31.95;34.55
80321;BME280;69633;47.066;15.450;2023-07-13T11:40:14;97421.94;;;31.83;35.05
80321;BME280;69633;47.066;15.450;2023-07-13T11:42:43;97411.72;;;31.69;34.94
80321;BME280;69633;47.066;15.450;2023-07-13T11:45:28;97412.66;;;31.66;35.04
80321;BME280;69633;47.066;15.450;2023-07-13T11:47:54;97419.72;;;31.20;35.22
80321;BME280;69633;47.066;15.450;2023-07-13T11:50:25;97429.56;;;31.11;35.33
80321;BME280;69633;47.066;15.450;2023-07-13T11:52:54;97432.97;;;31.21;35.47
80321;BME280;69633;47.066;15.450;2023-07-13T11:55:23;97427.50;;;31.21;37.48
80321;BME280;69633;47.066;15.450;2023-07-13T11:58:09;97429.56;;;30.79;39.60
80321;BME280;69633;47.066;15.450;2023-07-13T12:00:38;97415.91;;;30.37;42.03
80321;BME280;69633;47.066;15.450;2023-07-13T12:03:10;97424.69;;;30.50;42.26
80321;BME280;69633;47.066;15.450;2023-07-13T12:05:36;97421.84;;;30.35;42.03
80321;BME280;69633;47.066;15.450;2023-07-13T12:08:16;97408.75;;;30.30;42.67
80321;BME280;69633;47.066;15.450;2023-07-13T12:10:43;97408.47;;;30.28;43.77
80321;BME280;69633;47.066;15.450;2023-07-13T12:13:14;97407.66;;;30.46;43.40
80321;BME280;69633;47.066;15.450;2023-07-13T12:15:43;97408.50;;;30.61;43.71
80321;BME280;69633;47.066;15.450;2023-07-13T12:18:14;97394.75;;;30.70;43.30
80321;BME280;69633;47.066;15.450;2023-07-13T12:20:41;97410.41;;;31.02;43.58
80321;BME280;69633;47.066;15.450;2023-07-13T12:25:53;97398.69;;;30.45;44.25
80321;BME280;69633;47.066;15.450;2023-07-13T12:28:48;97395.41;;;30.23;45.22
80321;BME280;69633;47.066;15.450;2023-07-13T12:34:14;97416.81;;;29.92;46.19
80321;BME280;69633;47.066;15.450;2023-07-13T12:36:47;97411.78;;;28.99;48.16
80321;BME280;69633;47.066;15.450;2023-07-13T12:39:38;97402.66;;;28.93;49.26
80321;BME280;69633;47.066;15.450;2023-07-13T12:42:28;97402.50;;;28.78;49.66
80321;BME280;69633;47.066;15.450;2023-07-13T12:47:52;97422.25;;;28.52;51.92
80321;BME280;69633;47.066;15.450;2023-07-13T12:50:50;97432.84;;;28.41;52.07
80321;BME280;69633;47.066;15.450;2023-07-13T12:53:29;97445.97;;;28.02;53.10
80321;BME280;69633;47.066;15.450;2023-07-13T12:56:01;97461.44;;;27.40;54.63
80321;BME280;69633;47.066;15.450;2023-07-13T12:58:47;97464.41;;;27.20;55.78
80321;BME280;69633;47.066;15.450;2023-07-13T13:01:17;97465.31;;;27.17;54.47
80321;BME280;69633;47.066;15.450;2023-07-13T13:03:52;97469.28;;;26.91;56.05
80321;BME280;69633;47.066;15.450;2023-07-13T13:06:39;97467.94;;;26.70;56.23
80321;BME280;69633;47.066;15.450;2023-07-13T13:09:12;97466.00;;;26.46;57.19
80321;BME280;69633;47.066;15.450;2023-07-13T13:11:40;97460.69;;;26.13;57.40
80321;BME280;69633;47.066;15.450;2023-07-13T13:14:08;97467.97;;;26.04;56.87
80321;BME280;69633;47.066;15.450;2023-07-13T13:16:54;97492.25;;;25.98;56.83
80321;BME280;69633;47.066;15.450;2023-07-13T13:19:25;97496.22;;;25.81;57.18
80321;BME280;69633;47.066;15.450;2023-07-13T13:21:54;97505.22;;;25.78;57.62
80321;BME280;69633;47.066;15.450;2023-07-13T13:24:26;97502.03;;;25.67;57.88
80321;BME280;69633;47.066;15.450;2023-07-13T13:26:54;97498.84;;;25.56;58.39
80321;BME280;69633;47.066;15.450;2023-07-13T13:29:24;97507.66;;;25.43;58.49
80321;BME280;69633;47.066;15.450;2023-07-13T13:31:54;97526.88;;;25.36;58.83
80321;BME280;69633;47.066;15.450;2023-07-13T13:34:24;97529.59;;;25.36;58.26
80321;BME280;69633;47.066;15.450;2023-07-13T13:36:52;97535.47;;;25.19;58.57
80321;BME280;69633;47.066;15.450;2023-07-13T13:39:31;97537.56;;;25.11;58.90
80321;BME280;69633;47.066;15.450;2023-07-13T13:41:59;97537.66;;;24.91;59.48
80321;BME280;69633;47.066;15.450;2023-07-13T13:44:24;97530.28;;;24.72;60.63
80321;BME280;69633;47.066;15.450;2023-07-13T13:46:54;97520.19;;;24.73;60.39
80321;BME280;69633;47.066;15.450;2023-07-13T13:49:26;97525.00;;;25.01;59.21
80321;BME280;69633;47.066;15.450;2023-07-13T13:51:56;97527.03;;;25.13;59.20